Terminal Aerodrome Forecast
Issued by NWS Wilmington, NC

Home | Current Version | Previous Version | Text Only | Print | Product List | Glossary On
Versions: 1 2 3 4 5 6 7 8 9 10 11 12
000
FTUS42 KILM 201720
TAFLBT
TAF
KLBT 201720Z 2018/2118 23008KT P6SM FEW040 SCT070 BKN100
     FM210600 00000KT 5SM BR OVC050
     FM210900 00000KT 1/2SM FG OVC015
     FM211500 14003KT 4SM BR OVC015=

USA.gov is the U.S. government's official web portal to all federal, state and local government web resources and services.